This is the latest recevied weather packets stored in our database for station/object K7KAR-2. If no packets are shown the sender has not sent any weather packets the latest 10 day(s).
| Time | Temp. | Humidity | Pressure | Rain* | Wind** | Luminosity | Snow |
|---|---|---|---|---|---|---|---|
| 1778266578 | 18.89° C | 17% | 1011.4 hPa | 0 mm | - | 209 W/m² | - |
| 1778266276 | 18.89° C | 17% | 1011.4 hPa | 0 mm | - | 217 W/m² | - |
| 1778265973 | 20° C | 15% | 1011.5 hPa | 0 mm | - | 315 W/m² | - |
| 1778265670 | 19.44° C | 14% | 1011.7 hPa | 0 mm | - | 918 W/m² | - |
| 1778265366 | 21.11° C | 12% | 1011.7 hPa | 0 mm | - | 912 W/m² | - |
| 1778265062 | 20° C | 15% | 1011.7 hPa | 0 mm | - | 892 W/m² | - |
| 1778264759 | 18.89° C | 14% | 1011.9 hPa | 0 mm | - | 924 W/m² | - |
| 1778264455 | 18.89° C | 15% | 1012.2 hPa | 0 mm | - | 331 W/m² | - |
| 1778264155 | 18.89° C | 15% | 1011.9 hPa | 0 mm | - | 278 W/m² | - |
| 1778263854 | 20° C | 16% | 1012.3 hPa | 0 mm | - | 980 W/m² | - |
| 1778263550 | 18.89° C | 19% | 1012.4 hPa | 0 mm | - | 887 W/m² | - |
| 1778263246 | 19.44° C | 17% | 1012.5 hPa | 0 mm | - | 493 W/m² | - |
| 1778262943 | 18.89° C | 17% | 1012.4 hPa | 0 mm | - | 767 W/m² | - |
| 1778262641 | 18.89° C | 18% | 1012.6 hPa | 0 mm | - | 882 W/m² | - |
| 1778262338 | 18.33° C | 18% | 1012.8 hPa | 0 mm | - | 720 W/m² | - |
| 1778262035 | 18.33° C | 18% | 1012.8 hPa | 0 mm | - | 865 W/m² | - |
| 1778261732 | 18.33° C | 19% | 1012.9 hPa | 0 mm | - | 640 W/m² | - |
| 1778261427 | 18.33° C | 17% | 1013.2 hPa | 0 mm | - | 499 W/m² | - |
| 1778261125 | 18.33° C | 19% | 1013.2 hPa | 0 mm | - | 720 W/m² | - |
| 1778260821 | 17.78° C | 22% | 1012.9 hPa | 0 mm | - | 571 W/m² | - |
| 1778260518 | 17.78° C | 22% | 1013.3 hPa | 0 mm | - | 692 W/m² | - |
| 1778260214 | 17.78° C | 21% | 1013.2 hPa | 0 mm | - | 710 W/m² | - |
| 1778259912 | 17.22° C | 23% | 1013.2 hPa | 0 mm | - | 329 W/m² | - |
| 1778259609 | 16.67° C | 25% | 1013.4 hPa | 0 mm | - | 301 W/m² | - |
| 1778259307 | 16.67° C | 25% | 1013.3 hPa | 0 mm | - | 303 W/m² | - |
* Rain latest hour (hover to see other rain measurements)
** Current wind speed in m/s (hover to see current wind gust speed)